Time,TemperatureF,DewpointF,PressureIn,WindDirection,WindDirectionDegrees,WindSpeedMPH,WindSpeedGustMPH,Humidity,HourlyPrecipIn,Conditions,Clouds,dailyrainin,SolarRadiationWatts/m^2,SoftwareType,DateUTC
2013-07-09 00:00:00,67.2,47.4,29.95,NW,321,0.0,0.0,49,0.00,,,0.00,0,Wunderground v.1.15,2013-07-09 07:00:00,
2013-07-09 00:10:00,66.6,46.8,29.95,NW,321,0.0,0.0,49,0.00,,,0.00,0,Wunderground v.1.15,2013-07-09 07:10:00,
2013-07-09 00:20:00,66.2,47.0,29.95,NW,321,0.0,0.0,50,0.00,,,0.00,0,Wunderground v.1.15,2013-07-09 07:20:00,
2013-07-09 00:25:00,65.9,46.7,29.95,NW,321,0.0,0.0,50,0.00,,,0.00,0,Wunderground v.1.15,2013-07-09 07:25:00,
2013-07-09 00:30:00,65.8,46.6,29.96,NW,321,0.0,0.0,50,0.00,,,0.00,0,Wunderground v.1.15,2013-07-09 07:30:00,
2013-07-09 00:40:00,66.2,47.0,29.96,NW,321,0.0,0.0,50,0.00,,,0.00,0,Wunderground v.1.15,2013-07-09 07:40:00,
2013-07-09 00:45:00,66.3,46.6,29.96,NW,321,0.0,0.0,49,0.00,,,0.00,0,Wunderground v.1.15,2013-07-09 07:45:00,
2013-07-09 00:55:00,65.8,46.1,29.96,NW,321,0.0,0.0,49,0.00,,,0.00,0,Wunderground v.1.15,2013-07-09 07:55:00,
2013-07-09 01:00:00,63.8,46.3,29.96,NW,321,0.0,0.0,53,0.00,,,0.00,0,Wunderground v.1.15,2013-07-09 08:00:00,
2013-07-09 01:10:00,63.4,46.5,29.96,NW,321,0.0,0.0,54,0.00,,,0.00,0,Wunderground v.1.15,2013-07-09 08:10:00,
2013-07-09 01:15:00,63.9,46.4,29.96,NW,321,0.0,0.0,53,0.00,,,0.00,0,Wunderground v.1.15,2013-07-09 08:15:00,
2013-07-09 01:25:00,63.7,46.2,29.96,NW,321,0.0,0.0,53,0.00,,,0.00,0,Wunderground v.1.15,2013-07-09 08:25:00,
2013-07-09 01:35:00,64.1,46.6,29.96,NW,321,0.0,0.0,53,0.00,,,0.00,0,Wunderground v.1.15,2013-07-09 08:35:00,
2013-07-09 01:40:00,63.8,46.3,29.96,NW,321,0.0,0.0,53,0.00,,,0.00,0,Wunderground v.1.15,2013-07-09 08:40:00,
2013-07-09 01:45:00,63.6,46.6,29.96,NW,321,0.0,0.0,54,0.00,,,0.00,0,Wunderground v.1.15,2013-07-09 08:45:00,
2013-07-09 01:50:00,64.0,46.5,29.96,NW,321,0.0,0.0,53,0.00,,,0.00,0,Wunderground v.1.15,2013-07-09 08:50:00,
2013-07-09 01:55:00,64.4,46.9,29.96,NW,321,0.0,0.0,53,0.00,,,0.00,0,Wunderground v.1.15,2013-07-09 08:55:00,
2013-07-09 02:00:00,64.0,46.5,29.96,NW,321,0.0,0.0,53,0.00,,,0.00,0,Wunderground v.1.15,2013-07-09 09:00:00,
2013-07-09 02:10:00,62.3,45.4,29.96,NW,321,0.0,0.0,54,0.00,,,0.00,0,Wunderground v.1.15,2013-07-09 09:10:00,
2013-07-09 02:15:00,61.5,46.1,29.96,NW,321,0.0,0.0,57,0.00,,,0.00,0,Wunderground v.1.15,2013-07-09 09:15:00,
2013-07-09 02:20:00,62.0,46.1,29.96,NW,321,0.0,0.0,56,0.00,,,0.00,0,Wunderground v.1.15,2013-07-09 09:20:00,
2013-07-09 02:30:00,61.8,45.9,29.96,NW,321,0.0,0.0,56,0.00,,,0.00,0,Wunderground v.1.15,2013-07-09 09:30:00,
2013-07-09 02:35:00,61.8,45.9,29.96,NW,321,0.0,0.0,56,0.00,,,0.00,0,Wunderground v.1.15,2013-07-09 09:35:00,
2013-07-09 02:45:00,61.9,45.5,29.96,NW,321,0.0,0.0,55,0.00,,,0.00,0,Wunderground v.1.15,2013-07-09 09:45:00,
2013-07-09 02:50:00,60.9,45.6,29.96,NW,321,0.0,0.0,57,0.00,,,0.00,0,Wunderground v.1.15,2013-07-09 09:50:00,
2013-07-09 02:55:00,60.2,45.4,29.96,NW,321,0.0,0.0,58,0.00,,,0.00,0,Wunderground v.1.15,2013-07-09 09:55:00,
2013-07-09 03:00:00,59.9,45.1,29.96,NW,321,0.0,0.0,58,0.00,,,0.00,0,Wunderground v.1.15,2013-07-09 10:00:00,
2013-07-09 03:10:00,58.6,45.2,29.96,NW,321,0.0,0.0,61,0.00,,,0.00,0,Wunderground v.1.15,2013-07-09 10:10:00,
2013-07-09 03:15:00,58.7,45.3,29.96,NW,321,0.0,0.0,61,0.00,,,0.00,0,Wunderground v.1.15,2013-07-09 10:15:00,
2013-07-09 03:20:00,59.1,45.7,29.96,NW,321,0.0,0.0,61,0.00,,,0.00,0,Wunderground v.1.15,2013-07-09 10:20:00,
2013-07-09 03:30:00,58.6,44.8,29.96,NW,321,0.0,0.0,60,0.00,,,0.00,0,Wunderground v.1.15,2013-07-09 10:30:00,
2013-07-09 03:35:00,58.1,45.1,29.96,NW,321,0.0,0.0,62,0.00,,,0.00,0,Wunderground v.1.15,2013-07-09 10:35:00,
2013-07-09 03:40:00,57.6,44.7,29.96,NW,321,0.0,0.0,62,0.00,,,0.00,0,Wunderground v.1.15,2013-07-09 10:40:00,
2013-07-09 03:50:00,58.1,45.6,29.96,NW,321,0.0,0.0,63,0.00,,,0.00,0,Wunderground v.1.15,2013-07-09 10:50:00,
2013-07-09 03:55:00,57.4,45.7,29.96,NW,321,0.0,0.0,65,0.00,,,0.00,0,Wunderground v.1.15,2013-07-09 10:55:00,
2013-07-09 04:00:00,57.1,45.8,29.96,NW,321,0.0,0.0,66,0.00,,,0.00,0,Wunderground v.1.15,2013-07-09 11:00:00,
2013-07-09 04:10:00,56.6,45.8,29.97,NW,321,0.0,0.0,67,0.00,,,0.00,0,Wunderground v.1.15,2013-07-09 11:10:00,
2013-07-09 04:20:00,55.8,45.8,29.97,NW,321,0.0,0.0,69,0.00,,,0.00,0,Wunderground v.1.15,2013-07-09 11:20:00,
2013-07-09 04:25:00,55.1,45.5,29.97,NW,317,0.0,0.0,70,0.00,,,0.00,0,Wunderground v.1.15,2013-07-09 11:25:00,
2013-07-09 04:30:00,54.6,45.4,29.97,WSW,251,0.0,0.0,71,0.00,,,0.00,0,Wunderground v.1.15,2013-07-09 11:30:00,
2013-07-09 04:35:00,54.3,45.1,29.97,WSW,246,0.0,0.0,71,0.00,,,0.00,0,Wunderground v.1.15,2013-07-09 11:35:00,
2013-07-09 04:40:00,54.1,45.3,29.97,WSW,246,0.0,0.0,72,0.00,,,0.00,0,Wunderground v.1.15,2013-07-09 11:40:00,
2013-07-09 04:45:00,54.1,45.3,29.97,WSW,246,0.0,0.0,72,0.00,,,0.00,0,Wunderground v.1.15,2013-07-09 11:45:00,
2013-07-09 04:50:00,54.4,45.6,29.97,WSW,246,0.0,0.0,72,0.00,,,0.00,0,Wunderground v.1.15,2013-07-09 11:50:00,
2013-07-09 05:00:00,54.7,45.1,29.97,WSW,246,0.0,0.0,70,0.00,,,0.00,0,Wunderground v.1.15,2013-07-09 12:00:00,
2013-07-09 05:10:00,54.2,45.4,29.97,WSW,246,0.0,0.0,72,0.00,,,0.00,0,Wunderground v.1.15,2013-07-09 12:10:00,
2013-07-09 05:15:00,54.4,45.2,29.97,WSW,246,0.0,0.0,71,0.00,,,0.00,0,Wunderground v.1.15,2013-07-09 12:15:00,
2013-07-09 05:20:00,54.5,44.9,29.97,WSW,246,0.0,0.0,70,0.00,,,0.00,0,Wunderground v.1.15,2013-07-09 12:20:00,
2013-07-09 05:25:00,54.3,44.7,29.97,WSW,245,0.0,0.0,70,0.00,,,0.00,0,Wunderground v.1.15,2013-07-09 12:25:00,
2013-07-09 05:35:00,53.9,44.3,29.98,WSW,245,0.0,0.0,70,0.00,,,0.00,7,Wunderground v.1.15,2013-07-09 12:35:00,
2013-07-09 05:40:00,53.8,44.2,29.98,WSW,244,0.0,0.0,70,0.00,,,0.00,9,Wunderground v.1.15,2013-07-09 12:40:00,
2013-07-09 05:45:00,53.7,44.5,29.98,WSW,244,0.0,0.0,71,0.00,,,0.00,11,Wunderground v.1.15,2013-07-09 12:45:00,
2013-07-09 05:50:00,53.6,44.4,29.98,WSW,244,0.0,0.0,71,0.00,,,0.00,14,Wunderground v.1.15,2013-07-09 12:50:00,
2013-07-09 05:55:00,53.7,44.5,29.98,WSW,244,0.0,0.0,71,0.00,,,0.00,16,Wunderground v.1.15,2013-07-09 12:55:00,
2013-07-09 06:00:00,53.7,44.5,29.98,WSW,244,0.0,0.0,71,0.00,,,0.00,21,Wunderground v.1.15,2013-07-09 13:00:00,
2013-07-09 06:10:00,53.5,44.3,29.98,WSW,244,0.0,0.0,71,0.00,,,0.00,35,Wunderground v.1.15,2013-07-09 13:10:00,
2013-07-09 06:15:00,54.0,44.4,29.98,WSW,244,0.0,0.0,70,0.00,,,0.00,44,Wunderground v.1.15,2013-07-09 13:15:00,
2013-07-09 06:20:00,54.4,44.8,29.98,WSW,244,0.0,0.0,70,0.00,,,0.00,54,Wunderground v.1.15,2013-07-09 13:20:00,
2013-07-09 06:25:00,55.2,44.8,29.98,WSW,244,0.0,0.0,68,0.00,,,0.00,67,Wunderground v.1.15,2013-07-09 13:25:00,
2013-07-09 06:30:00,55.8,45.0,29.98,WSW,244,0.0,0.0,67,0.00,,,0.00,81,Wunderground v.1.15,2013-07-09 13:30:00,
2013-07-09 06:40:00,56.6,45.0,29.98,WSW,242,0.0,0.0,65,0.00,,,0.00,109,Wunderground v.1.15,2013-07-09 13:40:00,
2013-07-09 06:45:00,57.3,44.8,29.99,SSW,194,0.0,0.0,63,0.00,,,0.00,125,Wunderground v.1.15,2013-07-09 13:45:00,
2013-07-09 06:50:00,57.8,44.9,29.99,South,190,0.0,0.0,62,0.00,,,0.00,142,Wunderground v.1.15,2013-07-09 13:50:00,
2013-07-09 06:55:00,58.5,44.7,29.99,South,185,0.0,0.0,60,0.00,,,0.00,160,Wunderground v.1.15,2013-07-09 13:55:00,
2013-07-09 07:00:00,59.3,45.0,29.99,South,184,0.0,0.0,59,0.00,,,0.00,178,Wunderground v.1.15,2013-07-09 14:00:00,
2013-07-09 07:10:00,60.4,45.1,29.99,South,182,0.0,0.0,57,0.00,,,0.00,209,Wunderground v.1.15,2013-07-09 14:10:00,
2013-07-09 07:15:00,61.3,45.0,29.98,South,181,0.0,0.0,55,0.00,,,0.00,227,Wunderground v.1.15,2013-07-09 14:15:00,
2013-07-09 07:20:00,61.7,44.9,29.99,South,177,0.0,0.0,54,0.00,,,0.00,243,Wunderground v.1.15,2013-07-09 14:20:00,
2013-07-09 07:25:00,62.3,44.9,29.99,South,176,0.0,0.0,53,0.00,,,0.00,258,Wunderground v.1.15,2013-07-09 14:25:00,
2013-07-09 07:30:00,62.9,45.5,29.99,South,174,0.0,0.0,53,0.00,,,0.00,272,Wunderground v.1.15,2013-07-09 14:30:00,
2013-07-09 07:35:00,63.4,44.9,29.99,South,174,0.0,0.0,51,0.00,,,0.00,288,Wunderground v.1.15,2013-07-09 14:35:00,
2013-07-09 07:40:00,63.5,44.5,29.99,South,175,0.0,0.0,50,0.00,,,0.00,302,Wunderground v.1.15,2013-07-09 14:40:00,
2013-07-09 07:50:00,64.8,45.2,29.99,SSE,155,0.0,0.0,49,0.00,,,0.00,329,Wunderground v.1.15,2013-07-09 14:50:00,
2013-07-09 07:55:00,65.3,45.1,29.99,SE,144,0.0,0.0,48,0.00,,,0.00,343,Wunderground v.1.15,2013-07-09 14:55:00,
2013-07-09 08:00:00,65.9,45.1,29.99,SSE,157,0.0,0.0,47,0.00,,,0.00,359,Wunderground v.1.15,2013-07-09 15:00:00,
2013-07-09 08:10:00,67.4,45.3,29.99,SSE,150,0.0,1.0,45,0.00,,,0.00,388,Wunderground v.1.15,2013-07-09 15:10:00,
2013-07-09 08:15:00,68.0,45.9,29.99,SSE,148,0.0,1.0,45,0.00,,,0.00,403,Wunderground v.1.15,2013-07-09 15:15:00,
2013-07-09 08:25:00,69.5,46.0,29.99,SSE,148,0.0,0.0,43,0.00,,,0.00,429,Wunderground v.1.15,2013-07-09 15:25:00,
2013-07-09 08:30:00,69.5,46.0,29.99,SSE,148,0.0,0.0,43,0.00,,,0.00,443,Wunderground v.1.15,2013-07-09 15:30:00,
2013-07-09 08:35:00,70.1,47.2,29.99,SE,140,0.0,0.0,44,0.00,,,0.00,459,Wunderground v.1.15,2013-07-09 15:35:00,
2013-07-09 08:40:00,70.9,46.7,29.99,SE,131,0.0,0.0,42,0.00,,,0.00,473,Wunderground v.1.15,2013-07-09 15:40:00,
2013-07-09 08:50:00,71.6,46.6,29.99,SE,146,0.0,0.0,41,0.00,,,0.00,503,Wunderground v.1.15,2013-07-09 15:50:00,
2013-07-09 09:00:00,71.1,46.8,29.99,South,191,0.0,0.0,42,0.00,,,0.00,531,Wunderground v.1.15,2013-07-09 16:00:00,
2013-07-09 09:10:00,73.4,46.9,29.99,South,190,0.0,0.0,39,0.00,,,0.00,557,Wunderground v.1.15,2013-07-09 16:10:00,
2013-07-09 09:15:00,74.0,46.8,29.99,South,190,0.0,0.0,38,0.00,,,0.00,570,Wunderground v.1.15,2013-07-09 16:15:00,
2013-07-09 09:20:00,73.9,46.7,29.99,South,190,0.0,0.0,38,0.00,,,0.00,584,Wunderground v.1.15,2013-07-09 16:20:00,
2013-07-09 09:30:00,74.0,46.8,29.99,South,190,0.0,0.0,38,0.00,,,0.00,608,Wunderground v.1.15,2013-07-09 16:30:00,
2013-07-09 09:40:00,75.4,46.6,29.99,South,191,0.0,0.0,36,0.00,,,0.00,633,Wunderground v.1.15,2013-07-09 16:40:00,
2013-07-09 09:45:00,76.3,46.6,29.98,West,259,0.0,0.0,35,0.00,,,0.00,647,Wunderground v.1.15,2013-07-09 16:45:00,
2013-07-09 09:50:00,76.0,46.4,29.98,West,259,0.0,0.0,35,0.00,,,0.00,661,Wunderground v.1.15,2013-07-09 16:50:00,
2013-07-09 09:55:00,77.0,46.5,29.98,NW,311,0.0,0.0,34,0.00,,,0.00,673,Wunderground v.1.15,2013-07-09 16:55:00,
2013-07-09 10:00:00,76.7,46.2,29.98,NE,52,1.0,1.0,34,0.00,,,0.00,686,Wunderground v.1.15,2013-07-09 17:00:00,
2013-07-09 10:10:00,78.1,46.6,29.98,NE,53,0.0,0.0,33,0.00,,,0.00,707,Wunderground v.1.15,2013-07-09 17:10:00,
2013-07-09 10:15:00,78.7,46.4,29.98,NE,53,0.0,0.0,32,0.00,,,0.00,717,Wunderground v.1.15,2013-07-09 17:15:00,
2013-07-09 10:20:00,77.3,45.9,29.98,NE,53,0.0,0.0,33,0.00,,,0.00,728,Wunderground v.1.15,2013-07-09 17:20:00,
2013-07-09 10:25:00,78.2,45.9,29.97,SW,218,0.0,0.0,32,0.00,,,0.00,740,Wunderground v.1.15,2013-07-09 17:25:00,
2013-07-09 10:35:00,78.6,45.4,29.97,NNE,21,1.0,1.0,31,0.00,,,0.00,759,Wunderground v.1.15,2013-07-09 17:35:00,
2013-07-09 10:40:00,80.7,45.5,29.97,North,355,0.0,0.0,29,0.00,,,0.00,770,Wunderground v.1.15,2013-07-09 17:40:00,
2013-07-09 10:45:00,81.3,46.0,29.97,East,80,1.0,3.0,29,0.00,,,0.00,780,Wunderground v.1.15,2013-07-09 17:45:00,
2013-07-09 10:50:00,79.8,44.7,29.97,East,80,1.0,1.0,29,0.00,,,0.00,791,Wunderground v.1.15,2013-07-09 17:50:00,
2013-07-09 10:55:00,80.3,45.1,29.96,WSW,253,0.0,1.0,29,0.00,,,0.00,803,Wunderground v.1.15,2013-07-09 17:55:00,
2013-07-09 11:00:00,81.8,45.5,29.96,ESE,108,0.0,0.0,28,0.00,,,0.00,814,Wunderground v.1.15,2013-07-09 18:00:00,
2013-07-09 11:10:00,83.2,45.7,29.96,East,93,1.0,1.0,27,0.00,,,0.00,830,Wunderground v.1.15,2013-07-09 18:10:00,
2013-07-09 11:15:00,83.3,44.8,29.96,East,100,0.0,1.0,26,0.00,,,0.00,837,Wunderground v.1.15,2013-07-09 18:15:00,
2013-07-09 11:25:00,84.1,44.5,29.96,ENE,71,1.0,1.0,25,0.00,,,0.00,854,Wunderground v.1.15,2013-07-09 18:25:00,
2013-07-09 11:30:00,82.7,44.3,29.96,ENE,63,2.0,2.0,26,0.00,,,0.00,861,Wunderground v.1.15,2013-07-09 18:30:00,
2013-07-09 11:35:00,82.8,45.4,29.95,ENE,62,2.0,3.0,27,0.00,,,0.00,867,Wunderground v.1.15,2013-07-09 18:35:00,
2013-07-09 11:40:00,84.3,45.7,29.95,ENE,63,1.0,1.0,26,0.00,,,0.00,872,Wunderground v.1.15,2013-07-09 18:40:00,
2013-07-09 11:50:00,83.2,46.7,29.95,NE,38,1.0,2.0,28,0.00,,,0.00,879,Wunderground v.1.15,2013-07-09 18:50:00,
2013-07-09 11:55:00,83.8,46.2,29.95,North,360,1.0,2.0,27,0.00,,,0.00,888,Wunderground v.1.15,2013-07-09 18:55:00,
2013-07-09 12:00:00,84.7,46.0,29.95,North,360,0.0,0.0,26,0.00,,,0.00,895,Wunderground v.1.15,2013-07-09 19:00:00,
2013-07-09 12:10:00,85.8,46.9,29.95,NNW,340,0.0,0.0,26,0.00,,,0.00,909,Wunderground v.1.15,2013-07-09 19:10:00,
2013-07-09 12:15:00,86.6,46.6,29.94,North,349,1.0,1.0,25,0.00,,,0.00,914,Wunderground v.1.15,2013-07-09 19:15:00,
2013-07-09 12:25:00,85.1,47.4,29.94,NNW,331,3.0,3.0,27,0.00,,,0.00,918,Wunderground v.1.15,2013-07-09 19:25:00,
2013-07-09 12:30:00,84.8,45.1,29.93,NNW,330,4.0,4.0,25,0.00,,,0.00,921,Wunderground v.1.15,2013-07-09 19:30:00,
2013-07-09 12:35:00,86.2,47.3,29.93,NE,48,3.0,4.0,26,0.00,,,0.00,923,Wunderground v.1.15,2013-07-09 19:35:00,
2013-07-09 12:40:00,86.3,47.4,29.93,NNW,343,2.0,5.0,26,0.00,,,0.00,932,Wunderground v.1.15,2013-07-09 19:40:00,
2013-07-09 12:45:00,85.5,46.7,29.93,NNW,347,3.0,5.0,26,0.00,,,0.00,930,Wunderground v.1.15,2013-07-09 19:45:00,
2013-07-09 12:55:00,87.4,46.2,29.92,ENE,63,2.0,4.0,24,0.00,,,0.00,937,Wunderground v.1.15,2013-07-09 19:55:00,
2013-07-09 13:00:00,87.0,45.8,29.92,North,5,3.0,5.0,24,0.00,,,0.00,939,Wunderground v.1.15,2013-07-09 20:00:00,
2013-07-09 13:10:00,86.8,46.8,29.92,North,355,5.0,5.0,25,0.00,,,0.00,940,Wunderground v.1.15,2013-07-09 20:10:00,
2013-07-09 13:15:00,87.4,46.2,29.92,NW,311,5.0,6.0,24,0.00,,,0.00,937,Wunderground v.1.15,2013-07-09 20:15:00,
2013-07-09 13:20:00,87.1,45.9,29.92,North,360,4.0,6.0,24,0.00,,,0.00,939,Wunderground v.1.15,2013-07-09 20:20:00,
2013-07-09 13:30:00,87.4,48.3,29.91,NNW,339,4.0,8.0,26,0.00,,,0.00,939,Wunderground v.1.15,2013-07-09 20:30:00,
2013-07-09 13:35:00,87.1,45.9,29.91,North,355,5.0,8.0,24,0.00,,,0.00,937,Wunderground v.1.15,2013-07-09 20:35:00,
2013-07-09 13:40:00,87.4,46.2,29.91,North,355,5.0,6.0,24,0.00,,,0.00,935,Wunderground v.1.15,2013-07-09 20:40:00,
2013-07-09 13:45:00,88.0,46.7,29.91,NNE,15,5.0,9.0,24,0.00,,,0.00,937,Wunderground v.1.15,2013-07-09 20:45:00,
2013-07-09 13:50:00,87.9,45.5,29.91,North,355,5.0,5.0,23,0.00,,,0.00,933,Wunderground v.1.15,2013-07-09 20:50:00,
2013-07-09 13:55:00,88.1,45.6,29.91,NNW,340,5.0,5.0,23,0.00,,,0.00,930,Wunderground v.1.15,2013-07-09 20:55:00,
2013-07-09 14:00:00,87.8,45.4,29.91,NNE,17,6.0,8.0,23,0.00,,,0.00,926,Wunderground v.1.15,2013-07-09 21:00:00,
2013-07-09 14:10:00,88.3,44.6,29.90,North,355,5.0,7.0,22,0.00,,,0.00,919,Wunderground v.1.15,2013-07-09 21:10:00,
2013-07-09 14:15:00,88.6,46.1,29.90,North,350,6.0,7.0,23,0.00,,,0.00,916,Wunderground v.1.15,2013-07-09 21:15:00,
2013-07-09 14:20:00,89.2,45.4,29.90,North,355,6.0,6.0,22,0.00,,,0.00,909,Wunderground v.1.15,2013-07-09 21:20:00,
2013-07-09 14:25:00,89.9,46.0,29.90,NE,46,5.0,6.0,22,0.00,,,0.00,902,Wunderground v.1.15,2013-07-09 21:25:00,
2013-07-09 14:30:00,91.0,45.6,29.90,NNW,348,4.0,4.0,21,0.00,,,0.00,902,Wunderground v.1.15,2013-07-09 21:30:00,
2013-07-09 14:40:00,90.7,44.1,29.90,North,11,4.0,7.0,20,0.00,,,0.00,889,Wunderground v.1.15,2013-07-09 21:40:00,
2013-07-09 14:45:00,90.3,45.1,29.89,NE,42,5.0,7.0,21,0.00,,,0.00,886,Wunderground v.1.15,2013-07-09 21:45:00,
2013-07-09 14:50:00,91.5,44.8,29.89,North,355,5.0,7.0,20,0.00,,,0.00,882,Wunderground v.1.15,2013-07-09 21:50:00,
2013-07-09 15:00:00,91.5,46.1,29.89,NNE,25,7.0,7.0,21,0.00,,,0.00,867,Wunderground v.1.15,2013-07-09 22:00:00,
2013-07-09 15:10:00,91.3,44.6,29.88,NNW,331,7.0,7.0,20,0.00,,,0.00,854,Wunderground v.1.15,2013-07-09 22:10:00,
2013-07-09 15:15:00,91.4,46.0,29.88,NNW,327,5.0,7.0,21,0.00,,,0.00,847,Wunderground v.1.15,2013-07-09 22:15:00,
2013-07-09 15:20:00,91.4,46.0,29.88,North,350,5.0,8.0,21,0.00,,,0.00,838,Wunderground v.1.15,2013-07-09 22:20:00,
2013-07-09 15:25:00,91.5,47.3,29.88,NNE,21,8.0,9.0,22,0.00,,,0.00,833,Wunderground v.1.15,2013-07-09 22:25:00,
2013-07-09 15:30:00,91.3,45.9,29.88,NNE,26,8.0,8.0,21,0.00,,,0.00,824,Wunderground v.1.15,2013-07-09 22:30:00,
2013-07-09 15:35:00,91.3,45.9,29.87,NNW,344,7.0,8.0,21,0.00,,,0.00,816,Wunderground v.1.15,2013-07-09 22:35:00,
2013-07-09 15:45:00,92.2,47.9,29.87,NNE,14,6.0,8.0,22,0.00,,,0.00,789,Wunderground v.1.15,2013-07-09 22:45:00,
2013-07-09 15:50:00,92.7,47.0,29.87,NNE,32,6.0,7.0,21,0.00,,,0.00,779,Wunderground v.1.15,2013-07-09 22:50:00,
2013-07-09 16:00:00,91.9,46.4,29.86,NNE,32,8.0,10.0,21,0.00,,,0.00,763,Wunderground v.1.15,2013-07-09 23:00:00,
2013-07-09 16:10:00,92.0,46.5,29.86,ENE,58,7.0,8.0,21,0.00,,,0.00,744,Wunderground v.1.15,2013-07-09 23:10:00,
2013-07-09 16:20:00,92.4,45.5,29.86,North,350,6.0,8.0,20,0.00,,,0.00,726,Wunderground v.1.15,2013-07-09 23:20:00,
2013-07-09 16:25:00,92.4,45.5,29.86,NE,50,6.0,8.0,20,0.00,,,0.00,714,Wunderground v.1.15,2013-07-09 23:25:00,
2013-07-09 16:30:00,92.4,46.8,29.85,NNE,16,7.0,8.0,21,0.00,,,0.00,700,Wunderground v.1.15,2013-07-09 23:30:00,
2013-07-09 16:35:00,92.9,45.9,29.85,NNE,24,7.0,8.0,20,0.00,,,0.00,689,Wunderground v.1.15,2013-07-09 23:35:00,
2013-07-09 16:40:00,92.8,45.8,29.85,NE,42,7.0,7.0,20,0.00,,,0.00,673,Wunderground v.1.15,2013-07-09 23:40:00,
2013-07-09 16:50:00,93.1,46.1,29.85,NNW,331,6.0,6.0,20,0.00,,,0.00,650,Wunderground v.1.15,2013-07-09 23:50:00,
2013-07-09 17:00:00,92.9,45.9,29.84,NNW,339,5.0,6.0,20,0.00,,,0.00,629,Wunderground v.1.15,2013-07-10 00:00:00,
2013-07-09 17:10:00,93.1,46.1,29.84,NE,50,7.0,10.0,20,0.00,,,0.00,606,Wunderground v.1.15,2013-07-10 00:10:00,
2013-07-09 17:15:00,92.9,45.9,29.84,NNE,17,8.0,10.0,20,0.00,,,0.00,592,Wunderground v.1.15,2013-07-10 00:15:00,
2013-07-09 17:20:00,92.8,47.1,29.84,North,355,8.0,8.0,21,0.00,,,0.00,573,Wunderground v.1.15,2013-07-10 00:20:00,
2013-07-09 17:30:00,93.0,47.3,29.83,North,11,6.0,6.0,21,0.00,,,0.00,545,Wunderground v.1.15,2013-07-10 00:30:00,
2013-07-09 17:40:00,92.6,47.0,29.83,NNE,18,6.0,6.0,21,0.00,,,0.00,519,Wunderground v.1.15,2013-07-10 00:40:00,
2013-07-09 17:45:00,92.7,47.0,29.83,North,5,7.0,7.0,21,0.00,,,0.00,501,Wunderground v.1.15,2013-07-10 00:45:00,
2013-07-09 17:50:00,92.9,47.2,29.83,NE,37,7.0,7.0,21,0.00,,,0.00,489,Wunderground v.1.15,2013-07-10 00:50:00,
2013-07-09 17:55:00,92.8,47.1,29.83,NNE,13,7.0,7.0,21,0.00,,,0.00,473,Wunderground v.1.15,2013-07-10 00:55:00,
2013-07-09 18:00:00,92.6,47.0,29.83,NNE,30,7.0,7.0,21,0.00,,,0.00,462,Wunderground v.1.15,2013-07-10 01:00:00,
2013-07-09 18:10:00,92.4,45.5,29.83,NNE,16,6.0,7.0,20,0.00,,,0.00,434,Wunderground v.1.15,2013-07-10 01:10:00,
2013-07-09 18:15:00,92.4,45.5,29.83,NNE,19,7.0,7.0,20,0.00,,,0.00,418,Wunderground v.1.15,2013-07-10 01:15:00,
2013-07-09 18:20:00,92.6,45.7,29.83,NNE,17,6.0,11.0,20,0.00,,,0.00,406,Wunderground v.1.15,2013-07-10 01:20:00,
2013-07-09 18:30:00,92.3,48.0,29.83,North,5,6.0,8.0,22,0.00,,,0.00,378,Wunderground v.1.15,2013-07-10 01:30:00,
2013-07-09 18:40:00,92.0,46.5,29.83,NNW,348,6.0,6.0,21,0.00,,,0.00,348,Wunderground v.1.15,2013-07-10 01:40:00,
2013-07-09 18:45:00,91.9,47.6,29.83,NNE,22,6.0,11.0,22,0.00,,,0.00,332,Wunderground v.1.15,2013-07-10 01:45:00,
2013-07-09 18:50:00,91.6,48.6,29.83,NNE,27,6.0,9.0,23,0.00,,,0.00,316,Wunderground v.1.15,2013-07-10 01:50:00,
2013-07-09 18:55:00,91.3,47.1,29.83,NNW,336,6.0,9.0,22,0.00,,,0.00,301,Wunderground v.1.15,2013-07-10 01:55:00,
2013-07-09 19:00:00,91.6,44.9,29.83,North,5,6.0,6.0,20,0.00,,,0.00,287,Wunderground v.1.15,2013-07-10 02:00:00,
2013-07-09 19:10:00,91.3,44.6,29.83,NW,317,8.0,10.0,20,0.00,,,0.00,253,Wunderground v.1.15,2013-07-10 02:10:00,
2013-07-09 19:15:00,91.1,45.7,29.83,NNW,342,9.0,10.0,21,0.00,,,0.00,241,Wunderground v.1.15,2013-07-10 02:15:00,
2013-07-09 19:25:00,90.4,46.4,29.83,NNW,335,8.0,8.0,22,0.00,,,0.00,207,Wunderground v.1.15,2013-07-10 02:25:00,
2013-07-09 19:30:00,90.3,46.3,29.83,North,11,8.0,8.0,22,0.00,,,0.00,188,Wunderground v.1.15,2013-07-10 02:30:00,
2013-07-09 19:35:00,90.2,46.2,29.83,North,355,6.0,8.0,22,0.00,,,0.00,172,Wunderground v.1.15,2013-07-10 02:35:00,
2013-07-09 19:45:00,89.7,47.0,29.84,NNW,329,5.0,6.0,23,0.00,,,0.00,139,Wunderground v.1.15,2013-07-10 02:45:00,
2013-07-09 19:50:00,89.3,47.8,29.84,NNW,331,6.0,6.0,24,0.00,,,0.00,123,Wunderground v.1.15,2013-07-10 02:50:00,
2013-07-09 19:55:00,89.0,47.5,29.84,NW,321,5.0,6.0,24,0.00,,,0.00,107,Wunderground v.1.15,2013-07-10 02:55:00,
2013-07-09 20:00:00,88.6,48.3,29.84,NW,326,4.0,12.0,25,0.00,,,0.00,91,Wunderground v.1.15,2013-07-10 03:00:00,
2013-07-09 20:10:00,87.5,49.4,29.84,North,10,8.0,8.0,27,0.00,,,0.00,63,Wunderground v.1.15,2013-07-10 03:10:00,
2013-07-09 20:20:00,86.7,48.7,29.84,North,349,6.0,6.0,27,0.00,,,0.00,42,Wunderground v.1.15,2013-07-10 03:20:00,
2013-07-09 20:25:00,86.3,47.4,29.84,NNW,328,5.0,6.0,26,0.00,,,0.00,33,Wunderground v.1.15,2013-07-10 03:25:00,
2013-07-09 20:30:00,86.0,48.1,29.85,NNW,331,4.0,7.0,27,0.00,,,0.00,25,Wunderground v.1.15,2013-07-10 03:30:00,
2013-07-09 20:35:00,85.7,47.9,29.85,NNW,340,5.0,7.0,27,0.00,,,0.00,19,Wunderground v.1.15,2013-07-10 03:35:00,
2013-07-09 20:40:00,85.3,48.5,29.85,North,350,6.0,6.0,28,0.00,,,0.00,11,Wunderground v.1.15,2013-07-10 03:40:00,
2013-07-09 20:45:00,84.8,49.9,29.85,North,9,4.0,6.0,30,0.00,,,0.00,9,Wunderground v.1.15,2013-07-10 03:45:00,
2013-07-09 20:55:00,83.6,52.3,29.85,NNW,334,4.0,4.0,34,0.00,,,0.00,0,Wunderground v.1.15,2013-07-10 03:55:00,
2013-07-09 21:00:00,83.0,52.5,29.86,NNW,344,4.0,6.0,35,0.00,,,0.00,0,Wunderground v.1.15,2013-07-10 04:00:00,
2013-07-09 21:05:00,82.7,53.0,29.86,North,351,4.0,7.0,36,0.00,,,0.00,0,Wunderground v.1.15,2013-07-10 04:05:00,
2013-07-09 21:10:00,82.2,52.6,29.86,NNW,331,4.0,4.0,36,0.00,,,0.00,0,Wunderground v.1.15,2013-07-10 04:10:00,
2013-07-09 21:15:00,81.7,53.6,29.86,North,350,3.0,4.0,38,0.00,,,0.00,0,Wunderground v.1.15,2013-07-10 04:15:00,
2013-07-09 21:20:00,81.3,53.3,29.87,NNW,335,3.0,3.0,38,0.00,,,0.00,0,Wunderground v.1.15,2013-07-10 04:20:00,
2013-07-09 21:30:00,80.7,53.4,29.87,NW,323,2.0,2.0,39,0.00,,,0.00,0,Wunderground v.1.15,2013-07-10 04:30:00,
2013-07-09 21:35:00,80.3,53.8,29.88,NNW,340,1.0,2.0,40,0.00,,,0.00,0,Wunderground v.1.15,2013-07-10 04:35:00,
2013-07-09 21:40:00,80.0,53.5,29.88,North,351,1.0,2.0,40,0.00,,,0.00,0,Wunderground v.1.15,2013-07-10 04:40:00,
2013-07-09 21:45:00,79.8,53.3,29.88,NNW,338,1.0,2.0,40,0.00,,,0.00,0,Wunderground v.1.15,2013-07-10 04:45:00,
2013-07-09 21:50:00,79.5,53.1,29.88,NNW,348,1.0,1.0,40,0.00,,,0.00,0,Wunderground v.1.15,2013-07-10 04:50:00,
2013-07-09 21:55:00,79.4,53.6,29.88,North,360,2.0,2.0,41,0.00,,,0.00,0,Wunderground v.1.15,2013-07-10 04:55:00,
2013-07-09 22:00:00,79.1,53.4,29.88,NNW,342,1.0,1.0,41,0.00,,,0.00,0,Wunderground v.1.15,2013-07-10 05:00:00,
2013-07-09 22:10:00,78.1,53.8,29.89,NNW,338,0.0,0.0,43,0.00,,,0.00,0,Wunderground v.1.15,2013-07-10 05:10:00,
2013-07-09 22:15:00,77.8,53.5,29.89,NW,309,0.0,0.0,43,0.00,,,0.00,0,Wunderground v.1.15,2013-07-10 05:15:00,
2013-07-09 22:20:00,77.6,53.3,29.89,NW,318,1.0,1.0,43,0.00,,,0.00,0,Wunderground v.1.15,2013-07-10 05:20:00,
2013-07-09 22:30:00,77.4,53.1,29.89,NW,315,1.0,1.0,43,0.00,,,0.00,0,Wunderground v.1.15,2013-07-10 05:30:00,
2013-07-09 22:40:00,77.1,52.9,29.89,NW,325,1.0,1.0,43,0.00,,,0.00,0,Wunderground v.1.15,2013-07-10 05:40:00,
2013-07-09 22:45:00,76.9,53.3,29.89,North,350,1.0,1.0,44,0.00,,,0.00,0,Wunderground v.1.15,2013-07-10 05:45:00,
2013-07-09 22:50:00,76.4,52.9,29.89,NNE,14,1.0,4.0,44,0.00,,,0.00,0,Wunderground v.1.15,2013-07-10 05:50:00,
2013-07-09 22:55:00,76.2,53.3,29.89,North,360,3.0,4.0,45,0.00,,,0.00,0,Wunderground v.1.15,2013-07-10 05:55:00,
2013-07-09 23:00:00,76.1,53.2,29.89,North,360,5.0,6.0,45,0.00,,,0.00,0,Wunderground v.1.15,2013-07-10 06:00:00,
2013-07-09 23:10:00,75.8,52.9,29.89,NNE,13,5.0,5.0,45,0.00,,,0.00,0,Wunderground v.1.15,2013-07-10 06:10:00,
2013-07-09 23:15:00,75.4,52.6,29.89,North,355,3.0,5.0,45,0.00,,,0.00,0,Wunderground v.1.15,2013-07-10 06:15:00,
2013-07-09 23:20:00,75.3,52.5,29.89,NNE,14,4.0,4.0,45,0.00,,,0.00,0,Wunderground v.1.15,2013-07-10 06:20:00,
2013-07-09 23:30:00,75.3,52.5,29.89,NNE,30,5.0,6.0,45,0.00,,,0.00,0,Wunderground v.1.15,2013-07-10 06:30:00,
2013-07-09 23:35:00,75.0,52.8,29.89,NNE,13,3.0,6.0,46,0.00,,,0.00,0,Wunderground v.1.15,2013-07-10 06:35:00,
2013-07-09 23:45:00,74.4,52.9,29.90,NNE,28,1.0,1.0,47,0.00,,,0.00,0,Wunderground v.1.15,2013-07-10 06:45:00,
2013-07-09 23:50:00,74.2,52.7,29.90,NNE,13,1.0,1.0,47,0.00,,,0.00,0,Wunderground v.1.15,2013-07-10 06:50:00,
2013-07-09 23:55:00,73.9,52.4,29.90,NNE,13,0.0,1.0,47,0.00,,,0.00,0,Wunderground v.1.15,2013-07-10 06:55:00,